Voyager — C6WC2 — position and weather

sailwx.info

Track history (hours):
 
Tides and Currents Weather Stations Pressure Air Temp Water Temp Dewpoint Dewpoint Depression Visibility Wind Speed Wind Dir Waves Ship Positions

Voyager

Last reported at 2015-Mar-30 23:31 UTC. Time now 2015-Mar-31 00:17 UTC.
Position N 53°34' E 008°33'.

Length 151 m; draft 6 m.

Type: Passenger vessel. MMSI: 309695000.

Date/timePositionNaut miles runAvg speedWind from/ knotsBaromVisibWave heightAir tempDewpointWater temp
2015-Mar-30 23:31N 53°34' E 008°33'0 0.0
2015-Mar-30 22:31N 53°34' E 008°33'0 0.0
2015-Mar-30 21:33N 53°34' E 008°33'0 0.4
2015-Mar-30 20:33N 53°34' E 008°33'0 0.4
2015-Mar-30 19:33N 53°34' E 008°33'8 8.4
2015-Mar-30 18:33N 53°40' E 008°23'1111.3
2015-Mar-30 17:33N 53°47' E 008°09'8 8.2
2015-Mar-30 16:33N 53°52' E 007°57'7 7.4
2015-Mar-30 15:33N 53°58' E 007°49'5 4.8
2015-Mar-30 14:33N 53°56' E 007°42'7 7.3
2015-Mar-30 13:33N 53°54' E 007°30'1615.6
2015-Mar-30 12:33N 53°51' E 007°04'3215.6
2015-Mar-30 10:32N 53°43' E 006°12'1515.5
2015-Mar-30 09:34N 53°38' E 005°48'1615.5
2015-Mar-30 08:33N 53°33' E 005°23'1515.3
2015-Mar-30 07:33N 53°28' E 004°59'1414.4
2015-Mar-30 06:34N 53°19' E 004°39'1814.8
2015-Mar-30 05:23N 53°04' E 004°27'4615.0
2015-Mar-30 02:21N 52°27' E 003°41'6416.7
2015-Mar-29 22:32N 51°41' E 002°29'1717.6
2015-Mar-29 21:33N 51°28' E 002°12'1717.4
2015-Mar-29 20:33N 51°15' E 001°53'1818.0
2015-Mar-29 19:33N 51°01' E 001°35'8514.2
2015-Mar-29 13:33N 50°32' W 000°32'1615.8
2015-Mar-29 12:34N 50°40' W 000°53'1211.9
2015-Mar-29 11:33N 50°49' W 001°06'1 0.5
2015-Mar-29 10:33N 50°49' W 001°06'0 0.0
2015-Mar-29 09:33N 50°49' W 001°06'0 0.0
2015-Mar-29 08:33N 50°49' W 001°06'0 0.0
2015-Mar-29 07:33N 50°49' W 001°06'3 3.2
2015-Mar-29 06:33N 50°46' W 001°05'7 7.0
2015-Mar-29 05:33N 50°40' W 000°59'1010.3
2015-Mar-29 04:33N 50°30' W 001°05'1212.2
2015-Mar-29 03:33N 50°26' W 001°23'5213.1
2015-Mar-28 23:33N 50°12' W 002°42'1413.4
2015-Mar-28 22:33N 50°08' W 003°02'1313.4
2015-Mar-28 21:33N 50°06' W 003°22'26010.3
2015-Mar-27 20:23N 54°16' W 005°17'1316.2
2015-Mar-27 19:33N 54°30' W 005°17'1515.5
2015-Mar-27 18:34N 54°43' W 005°29'1313.3
2015-Mar-27 17:33N 54°39' W 005°51'4 3.4
2015-Mar-27 16:32N 54°37' W 005°55'0 0.0
2015-Mar-27 15:28N 54°37' W 005°55'0 0.0
2015-Mar-27 14:25N 54°37' W 005°55'0 0.0
2015-Mar-27 13:31N 54°37' W 005°55'0 0.0
2015-Mar-27 12:25N 54°37' W 005°55'0 0.0
2015-Mar-27 11:25N 54°37' W 005°55'0 0.0
2015-Mar-27 10:25N 54°37' W 005°55'0 0.0
2015-Mar-27 09:13N 54°37' W 005°55'0 0.5
2015-Mar-27 08:26N 54°37' W 005°55'8 9.1
2015-Mar-27 07:34N 54°42' W 005°44'9 9.2
2015-Mar-27 06:34N 54°51' W 005°37'1211.6
2015-Mar-27 05:34N 55°02' W 005°43'2412.1
2015-Mar-27 03:33N 55°21' W 006°08'1413.5
2015-Mar-27 02:34N 55°28' W 006°29'1414.4
2015-Mar-27 01:34N 55°37' W 006°48'  
Track history (hours):
 
Tides and Currents Weather Stations Pressure Air Temp Water Temp Dewpoint Dewpoint Depression Visibility Wind Speed Wind Dir Waves Ship Positions

Voyager

Last reported at 2015-Mar-30 23:31 UTC. Time now 2015-Mar-31 00:17 UTC.
Position N 53°34' E 008°33'.

Length 151 m; draft 6 m.

Type: Passenger vessel. MMSI: 309695000.

Date/timePositionNaut miles runAvg speedWind from/ knotsBaromVisibWave heightAir tempDewpointWater temp
2015-Mar-30 23:31N 53°34' E 008°33'0 0.0
2015-Mar-30 22:31N 53°34' E 008°33'0 0.0
2015-Mar-30 21:33N 53°34' E 008°33'0 0.4
2015-Mar-30 20:33N 53°34' E 008°33'0 0.4
2015-Mar-30 19:33N 53°34' E 008°33'8 8.4
2015-Mar-30 18:33N 53°40' E 008°23'1111.3
2015-Mar-30 17:33N 53°47' E 008°09'8 8.2
2015-Mar-30 16:33N 53°52' E 007°57'7 7.4
2015-Mar-30 15:33N 53°58' E 007°49'5 4.8
2015-Mar-30 14:33N 53°56' E 007°42'7 7.3
2015-Mar-30 13:33N 53°54' E 007°30'1615.6
2015-Mar-30 12:33N 53°51' E 007°04'3215.6
2015-Mar-30 10:32N 53°43' E 006°12'1515.5
2015-Mar-30 09:34N 53°38' E 005°48'1615.5
2015-Mar-30 08:33N 53°33' E 005°23'1515.3
2015-Mar-30 07:33N 53°28' E 004°59'1414.4
2015-Mar-30 06:34N 53°19' E 004°39'1814.8
2015-Mar-30 05:23N 53°04' E 004°27'4615.0
2015-Mar-30 02:21N 52°27' E 003°41'6416.7
2015-Mar-29 22:32N 51°41' E 002°29'1717.6
2015-Mar-29 21:33N 51°28' E 002°12'1717.4
2015-Mar-29 20:33N 51°15' E 001°53'1818.0
2015-Mar-29 19:33N 51°01' E 001°35'8514.2
2015-Mar-29 13:33N 50°32' W 000°32'1615.8
2015-Mar-29 12:34N 50°40' W 000°53'1211.9
2015-Mar-29 11:33N 50°49' W 001°06'1 0.5
2015-Mar-29 10:33N 50°49' W 001°06'0 0.0
2015-Mar-29 09:33N 50°49' W 001°06'0 0.0
2015-Mar-29 08:33N 50°49' W 001°06'0 0.0
2015-Mar-29 07:33N 50°49' W 001°06'3 3.2
2015-Mar-29 06:33N 50°46' W 001°05'7 7.0
2015-Mar-29 05:33N 50°40' W 000°59'1010.3
2015-Mar-29 04:33N 50°30' W 001°05'1212.2
2015-Mar-29 03:33N 50°26' W 001°23'5213.1
2015-Mar-28 23:33N 50°12' W 002°42'1413.4
2015-Mar-28 22:33N 50°08' W 003°02'1313.4
2015-Mar-28 21:33N 50°06' W 003°22'26010.3
2015-Mar-27 20:23N 54°16' W 005°17'1316.2
2015-Mar-27 19:33N 54°30' W 005°17'1515.5
2015-Mar-27 18:34N 54°43' W 005°29'1313.3
2015-Mar-27 17:33N 54°39' W 005°51'4 3.4
2015-Mar-27 16:32N 54°37' W 005°55'0 0.0
2015-Mar-27 15:28N 54°37' W 005°55'0 0.0
2015-Mar-27 14:25N 54°37' W 005°55'0 0.0
2015-Mar-27 13:31N 54°37' W 005°55'0 0.0
2015-Mar-27 12:25N 54°37' W 005°55'0 0.0
2015-Mar-27 11:25N 54°37' W 005°55'0 0.0
2015-Mar-27 10:25N 54°37' W 005°55'0 0.0
2015-Mar-27 09:13N 54°37' W 005°55'0 0.5
2015-Mar-27 08:26N 54°37' W 005°55'8 9.1
2015-Mar-27 07:34N 54°42' W 005°44'9 9.2
2015-Mar-27 06:34N 54°51' W 005°37'1211.6
2015-Mar-27 05:34N 55°02' W 005°43'2412.1
2015-Mar-27 03:33N 55°21' W 006°08'1413.5
2015-Mar-27 02:34N 55°28' W 006°29'1414.4
2015-Mar-27 01:34N 55°37' W 006°48'  

Dump ship's entire track history